LFTW/FNI METAR and TAF weather

Enter ICAO airport designator
Station Type Date Time Source
LFTW METAR 2021/03/05 18:30 UTC NOAA

LFTW 051830Z AUTO 01007KT CAVOK 12/02 Q1018 NOSIG


Station Type Date Time Source
LFTW Decoded METAR 2021/03/05 18:30 UTC NOAA

Nimes / Garons, France (LFTW) 43-45N 004-25E 96M
Mar 05, 2021 - 01:30 PM EST / 2021.03.05 1830 UTC
Wind: from the N (010 degrees) at 8 MPH (7 KT):0
Visibility: greater than 7 mile(s):0
Temperature: 53 F (12 C)
Dew Point: 35 F (2 C)
Relative Humidity: 50%
Pressure (altimeter): 30.06 in. Hg (1018 hPa)
ob: LFTW 051830Z AUTO 01007KT CAVOK 12/02 Q1018 NOSIG
cycle: 18

Station Type Date Time Source
LFTW TAF 2021/03/05 15:50 UTC NOAA

TAF LFTW 051400Z 0515/0615 02012KT CAVOK
BECMG 0604/0606 BKN020
BECMG 0612/0614 VRB04KT

Example: see airport list